Catàleg de serveis del Meteocat
Campanya meteocatpedra

Dades de l'estació automàtica els Alamús

?
?
Resum diari 21:00 TU
Dades diàries de l'estació meteorològica
Temperatura mitjana 20.7 °C
Temperatura màxima 27.3 °C 13:47 TU
Temperatura mínima 17.2 °C 6:51 TU
Humitat relativa mitjana 78%
Precipitació acumulada 3.0 mm
Ratxa màxima del vent (2 m) 25.9 km/h - 118º 15:33 TU

El tram horari està expressat en Temps Universal (TU). Cal sumar una hora en horari d'hivern i dues en horari d'estiu per passar a l'hora oficial.

els Alamús

Metadades estació meteorol´gica
Municipi Els Alamús
Comarca Segrià
Altitud 235 m
Data alta 22.06.2011
Estat actual Operativa
Dades de període
Període
TU
TM
°C
TX
°C
TN
°C
HRM
%
PPT
mm
VVM (2 m)
km/h
DVM (2 m)
graus
VVX (2 m)
km/h
00:00 - 00:30 17.9 18.0 17.7 90 0.0 1.4 85 4.0
00:30 - 01:00 17.8 17.9 17.5 90 0.0 2.5 104 5.0
01:00 - 01:30 17.5 17.8 17.3 91 0.0 4.0 125 7.2
01:30 - 02:00 18.1 18.3 17.9 88 0.0 1.8 127 5.4
02:00 - 02:30 17.6 17.7 17.4 91 0.0 1.4 62 4.7
02:30 - 03:00 17.5 17.7 17.4 91 0.0 2.9 65 6.8
03:00 - 03:30 17.6 17.8 17.5 90 0.0 5.4 62 9.7
03:30 - 04:00 17.9 18.0 17.8 88 0.0 4.3 9 9.4
04:00 - 04:30 18.1 18.2 18.0 87 0.0 3.6 21 10.1
04:30 - 05:00 18.0 18.1 18.0 88 0.0 1.8 27 6.5
05:00 - 05:30 18.0 18.1 17.5 90 1.8 2.9 145 10.8
05:30 - 06:00 17.4 17.5 17.4 95 1.0 9.0 73 15.5
06:00 - 06:30 17.5 17.6 17.4 95 0.1 5.0 66 15.1
06:30 - 07:00 17.4 17.5 17.2 96 0.0 1.1 78 6.1
07:00 - 07:30 17.3 17.3 17.3 95 0.0 2.9 17 7.9
07:30 - 08:00 17.3 17.3 17.3 96 0.0 2.5 32 7.9
08:00 - 08:30 17.5 17.7 17.3 95 0.0 1.1 21 5.8
08:30 - 09:00 18.2 18.8 17.8 95 0.1 1.4 53 4.7
09:00 - 09:30 20.0 20.6 18.8 85 0.0 5.4 50 13.3
09:30 - 10:00 20.3 20.5 20.2 81 0.0 7.2 84 12.2
10:00 - 10:30 21.2 22.6 20.4 78 0.0 5.4 86 11.5
10:30 - 11:00 23.2 24.4 22.1 69 0.0 2.5 99 9.4
11:00 - 11:30 24.2 25.0 23.4 64 0.0 4.3 83 10.1
11:30 - 12:00 25.4 25.9 24.9 59 0.0 3.2 320 9.4
12:00 - 12:30 26.1 26.4 25.5 54 0.0 3.6 308 10.4
12:30 - 13:00 25.7 26.2 25.1 51 0.0 3.6 298 10.8
13:00 - 13:30 26.6 26.9 26.3 47 0.0 4.0 314 11.5
13:30 - 14:00 26.7 27.3 25.8 48 0.0 2.9 320 10.1
14:00 - 14:30 26.0 26.9 25.6 50 0.0 1.4 340 6.5
14:30 - 15:00 26.3 27.1 25.9 48 0.0 4.0 49 8.6
15:00 - 15:30 26.3 26.7 25.6 50 0.0 10.1 98 23.0
15:30 - 16:00 25.0 25.6 24.8 60 0.0 14.0 103 25.9
16:00 - 16:30 24.5 25.0 23.6 62 0.0 10.8 107 19.4
16:30 - 17:00 23.6 23.8 23.2 64 0.0 10.4 114 19.8
17:00 - 17:30 22.6 23.2 22.3 70 0.0 10.8 125 18.7
17:30 - 18:00 22.0 22.2 21.8 70 0.0 5.8 125 10.4
18:00 - 18:30 20.9 21.7 20.4 75 0.0 4.0 85 9.0
18:30 - 19:00 20.5 21.1 20.0 79 0.0 3.2 53 8.3
19:00 - 19:30 20.3 20.8 19.9 79 0.0 2.9 48 10.4
19:30 - 20:00 19.4 19.9 18.8 84 0.0 1.1 25 6.1
20:00 - 20:30 19.1 19.2 19.0 87 0.0 2.2 54 5.8
20:30 - 21:00 18.8 19.0 18.7 88 0.0 2.5 60 6.1
21:00 - 21:30 18.9 19.0 18.8 87 0.0 4.0 76 7.2

Les dades en taronja només han passat un control de qualitat automàtic. Resta pendent la seva validació definitiva.